sensor_id;sensor_type;location;lat;lon;timestamp;temperature;humidity
38464;DHT22;24243;51.956;5.902;2024-02-23T00:00:42;19.20;62.00
38464;DHT22;24243;51.956;5.902;2024-02-23T00:03:26;19.30;62.10
38464;DHT22;24243;51.956;5.902;2024-02-23T00:06:11;19.20;62.00
38464;DHT22;24243;51.956;5.902;2024-02-23T00:08:55;19.20;62.00
38464;DHT22;24243;51.956;5.902;2024-02-23T00:11:40;19.20;62.00
38464;DHT22;24243;51.956;5.902;2024-02-23T00:14:27;19.20;62.00
38464;DHT22;24243;51.956;5.902;2024-02-23T00:17:12;19.20;62.00
38464;DHT22;24243;51.956;5.902;2024-02-23T00:19:56;19.20;62.00
38464;DHT22;24243;51.956;5.902;2024-02-23T00:22:40;19.20;61.90
38464;DHT22;24243;51.956;5.902;2024-02-23T00:25:25;19.20;61.90
38464;DHT22;24243;51.956;5.902;2024-02-23T00:28:09;19.20;61.90
38464;DHT22;24243;51.956;5.902;2024-02-23T00:30:53;19.20;61.90
38464;DHT22;24243;51.956;5.902;2024-02-23T00:33:38;19.20;61.90
38464;DHT22;24243;51.956;5.902;2024-02-23T00:36:26;19.20;61.90
38464;DHT22;24243;51.956;5.902;2024-02-23T00:39:10;19.20;61.90
38464;DHT22;24243;51.956;5.902;2024-02-23T00:41:54;19.20;61.90
38464;DHT22;24243;51.956;5.902;2024-02-23T00:44:38;19.10;61.80
38464;DHT22;24243;51.956;5.902;2024-02-23T00:47:23;19.20;61.90
38464;DHT22;24243;51.956;5.902;2024-02-23T00:50:07;19.10;61.90
38464;DHT22;24243;51.956;5.902;2024-02-23T00:52:52;19.10;61.90
38464;DHT22;24243;51.956;5.902;2024-02-23T00:55:37;19.10;61.80
38464;DHT22;24243;51.956;5.902;2024-02-23T00:58:21;19.10;61.80
38464;DHT22;24243;51.956;5.902;2024-02-23T01:01:05;19.10;61.80
38464;DHT22;24243;51.956;5.902;2024-02-23T01:03:49;19.10;61.80
38464;DHT22;24243;51.956;5.902;2024-02-23T01:06:34;19.10;61.80
38464;DHT22;24243;51.956;5.902;2024-02-23T01:09:18;19.10;61.80
38464;DHT22;24243;51.956;5.902;2024-02-23T01:12:04;19.10;61.80
38464;DHT22;24243;51.956;5.902;2024-02-23T01:14:49;19.10;61.80
38464;DHT22;24243;51.956;5.902;2024-02-23T01:17:33;19.00;61.70
38464;DHT22;24243;51.956;5.902;2024-02-23T01:20:18;19.10;61.80
38464;DHT22;24243;51.956;5.902;2024-02-23T01:23:02;19.10;61.80
38464;DHT22;24243;51.956;5.902;2024-02-23T01:25:46;19.00;61.70
38464;DHT22;24243;51.956;5.902;2024-02-23T01:28:30;19.10;61.80
38464;DHT22;24243;51.956;5.902;2024-02-23T01:31:15;19.10;61.80
38464;DHT22;24243;51.956;5.902;2024-02-23T01:33:59;19.10;61.80
38464;DHT22;24243;51.956;5.902;2024-02-23T01:36:43;19.00;61.70
38464;DHT22;24243;51.956;5.902;2024-02-23T01:39:28;19.00;61.70
38464;DHT22;24243;51.956;5.902;2024-02-23T01:42:12;19.00;61.70
38464;DHT22;24243;51.956;5.902;2024-02-23T01:44:56;19.00;61.70
38464;DHT22;24243;51.956;5.902;2024-02-23T01:47:41;19.00;61.70
38464;DHT22;24243;51.956;5.902;2024-02-23T01:50:25;19.00;61.70
38464;DHT22;24243;51.956;5.902;2024-02-23T01:53:10;19.00;61.70
38464;DHT22;24243;51.956;5.902;2024-02-23T01:55:56;19.00;61.70
38464;DHT22;24243;51.956;5.902;2024-02-23T01:58:41;19.00;61.70
38464;DHT22;24243;51.956;5.902;2024-02-23T02:01:26;19.00;61.70
38464;DHT22;24243;51.956;5.902;2024-02-23T02:04:10;19.00;61.70
38464;DHT22;24243;51.956;5.902;2024-02-23T02:06:54;19.00;61.70
38464;DHT22;24243;51.956;5.902;2024-02-23T02:09:39;19.00;61.70
38464;DHT22;24243;51.956;5.902;2024-02-23T02:12:27;19.00;61.70
38464;DHT22;24243;51.956;5.902;2024-02-23T02:15:11;18.90;61.60
38464;DHT22;24243;51.956;5.902;2024-02-23T02:17:55;18.90;61.60
38464;DHT22;24243;51.956;5.902;2024-02-23T02:20:40;19.00;61.70
38464;DHT22;24243;51.956;5.902;2024-02-23T02:23:34;18.90;61.60
38464;DHT22;24243;51.956;5.902;2024-02-23T02:26:18;18.90;61.60
38464;DHT22;24243;51.956;5.902;2024-02-23T02:29:03;18.90;61.70
38464;DHT22;24243;51.956;5.902;2024-02-23T02:31:47;18.90;61.60
38464;DHT22;24243;51.956;5.902;2024-02-23T02:34:32;18.90;61.60
38464;DHT22;24243;51.956;5.902;2024-02-23T02:37:16;18.90;61.60
38464;DHT22;24243;51.956;5.902;2024-02-23T02:40:00;18.90;61.60
38464;DHT22;24243;51.956;5.902;2024-02-23T02:42:44;18.90;61.60
38464;DHT22;24243;51.956;5.902;2024-02-23T02:45:29;18.90;61.60
38464;DHT22;24243;51.956;5.902;2024-02-23T02:48:13;18.90;61.60
38464;DHT22;24243;51.956;5.902;2024-02-23T02:50:57;18.90;61.60
38464;DHT22;24243;51.956;5.902;2024-02-23T02:53:41;18.90;61.60
38464;DHT22;24243;51.956;5.902;2024-02-23T02:56:26;18.90;61.60
38464;DHT22;24243;51.956;5.902;2024-02-23T02:59:10;18.90;61.60
38464;DHT22;24243;51.956;5.902;2024-02-23T03:01:54;18.90;61.60
38464;DHT22;24243;51.956;5.902;2024-02-23T03:04:39;18.90;61.60
38464;DHT22;24243;51.956;5.902;2024-02-23T03:07:23;18.90;61.60
38464;DHT22;24243;51.956;5.902;2024-02-23T03:10:07;18.80;62.20
38464;DHT22;24243;51.956;5.902;2024-02-23T03:12:52;18.80;61.50
38464;DHT22;24243;51.956;5.902;2024-02-23T03:15:36;18.80;61.50
38464;DHT22;24243;51.956;5.902;2024-02-23T03:18:20;18.80;61.50
38464;DHT22;24243;51.956;5.902;2024-02-23T03:21:04;18.80;61.50
38464;DHT22;24243;51.956;5.902;2024-02-23T03:23:50;18.80;61.50
38464;DHT22;24243;51.956;5.902;2024-02-23T03:26:34;18.80;61.50
38464;DHT22;24243;51.956;5.902;2024-02-23T03:29:19;18.80;61.50
38464;DHT22;24243;51.956;5.902;2024-02-23T03:32:03;18.80;61.50
38464;DHT22;24243;51.956;5.902;2024-02-23T03:34:48;18.80;61.50
38464;DHT22;24243;51.956;5.902;2024-02-23T03:37:32;18.80;61.50
38464;DHT22;24243;51.956;5.902;2024-02-23T03:40:17;18.80;61.50
38464;DHT22;24243;51.956;5.902;2024-02-23T03:43:03;18.80;61.50
38464;DHT22;24243;51.956;5.902;2024-02-23T03:45:47;18.80;61.50
38464;DHT22;24243;51.956;5.902;2024-02-23T03:48:32;18.80;61.40
38464;DHT22;24243;51.956;5.902;2024-02-23T03:51:16;18.80;61.50
38464;DHT22;24243;51.956;5.902;2024-02-23T03:54:00;18.80;61.40
38464;DHT22;24243;51.956;5.902;2024-02-23T03:56:44;18.80;61.50
38464;DHT22;24243;51.956;5.902;2024-02-23T03:59:28;18.80;61.40
38464;DHT22;24243;51.956;5.902;2024-02-23T04:02:13;18.80;61.40
38464;DHT22;24243;51.956;5.902;2024-02-23T04:04:57;18.80;61.40
38464;DHT22;24243;51.956;5.902;2024-02-23T04:07:41;18.80;61.50
38464;DHT22;24243;51.956;5.902;2024-02-23T04:10:25;18.70;61.40
38464;DHT22;24243;51.956;5.902;2024-02-23T04:13:10;18.70;61.40
38464;DHT22;24243;51.956;5.902;2024-02-23T04:15:57;18.70;61.50
38464;DHT22;24243;51.956;5.902;2024-02-23T04:18:42;18.80;61.40
38464;DHT22;24243;51.956;5.902;2024-02-23T04:21:26;18.80;61.40
38464;DHT22;24243;51.956;5.902;2024-02-23T04:24:10;18.70;61.40
38464;DHT22;24243;51.956;5.902;2024-02-23T04:26:55;18.70;61.40
38464;DHT22;24243;51.956;5.902;2024-02-23T04:29:39;18.70;61.40
38464;DHT22;24243;51.956;5.902;2024-02-23T04:32:23;18.70;61.40
38464;DHT22;24243;51.956;5.902;2024-02-23T04:35:07;18.70;61.30
38464;DHT22;24243;51.956;5.902;2024-02-23T04:37:51;18.70;61.40
38464;DHT22;24243;51.956;5.902;2024-02-23T04:40:36;18.70;61.30
38464;DHT22;24243;51.956;5.902;2024-02-23T04:43:20;18.70;61.30
38464;DHT22;24243;51.956;5.902;2024-02-23T04:46:04;18.70;61.30
38464;DHT22;24243;51.956;5.902;2024-02-23T04:48:48;18.70;61.30
38464;DHT22;24243;51.956;5.902;2024-02-23T04:51:33;18.70;61.30
38464;DHT22;24243;51.956;5.902;2024-02-23T04:54:17;18.70;61.30
38464;DHT22;24243;51.956;5.902;2024-02-23T04:57:01;18.70;61.30
38464;DHT22;24243;51.956;5.902;2024-02-23T04:59:45;18.70;61.30
38464;DHT22;24243;51.956;5.902;2024-02-23T05:02:29;18.70;61.30
38464;DHT22;24243;51.956;5.902;2024-02-23T05:05:18;18.70;61.30
38464;DHT22;24243;51.956;5.902;2024-02-23T05:08:03;18.70;61.30
38464;DHT22;24243;51.956;5.902;2024-02-23T05:10:47;18.70;61.30
38464;DHT22;24243;51.956;5.902;2024-02-23T05:13:31;18.70;61.30
38464;DHT22;24243;51.956;5.902;2024-02-23T05:16:16;18.70;61.30
38464;DHT22;24243;51.956;5.902;2024-02-23T05:19:00;18.70;61.30
38464;DHT22;24243;51.956;5.902;2024-02-23T05:21:44;18.60;61.20
38464;DHT22;24243;51.956;5.902;2024-02-23T05:24:29;18.60;61.20
38464;DHT22;24243;51.956;5.902;2024-02-23T05:27:13;18.60;61.20
38464;DHT22;24243;51.956;5.902;2024-02-23T05:29:57;18.60;61.20
38464;DHT22;24243;51.956;5.902;2024-02-23T05:32:41;18.60;61.20
38464;DHT22;24243;51.956;5.902;2024-02-23T05:35:25;18.60;61.20
38464;DHT22;24243;51.956;5.902;2024-02-23T05:38:10;18.60;61.20
38464;DHT22;24243;51.956;5.902;2024-02-23T05:40:54;18.60;61.20
38464;DHT22;24243;51.956;5.902;2024-02-23T05:43:39;18.60;61.20
38464;DHT22;24243;51.956;5.902;2024-02-23T05:46:23;18.60;61.20
38464;DHT22;24243;51.956;5.902;2024-02-23T05:49:07;18.60;61.20
38464;DHT22;24243;51.956;5.902;2024-02-23T05:51:51;18.60;61.20
38464;DHT22;24243;51.956;5.902;2024-02-23T05:54:35;18.60;61.20
38464;DHT22;24243;51.956;5.902;2024-02-23T05:57:20;18.60;61.20
38464;DHT22;24243;51.956;5.902;2024-02-23T06:00:04;18.60;61.10
38464;DHT22;24243;51.956;5.902;2024-02-23T06:02:49;18.60;61.10
38464;DHT22;24243;51.956;5.902;2024-02-23T06:05:33;18.60;61.10
38464;DHT22;24243;51.956;5.902;2024-02-23T06:08:17;18.60;61.10
38464;DHT22;24243;51.956;5.902;2024-02-23T06:11:01;18.60;61.10
38464;DHT22;24243;51.956;5.902;2024-02-23T06:13:47;18.60;61.10
38464;DHT22;24243;51.956;5.902;2024-02-23T06:16:31;18.60;61.10
38464;DHT22;24243;51.956;5.902;2024-02-23T06:19:16;18.60;61.10
38464;DHT22;24243;51.956;5.902;2024-02-23T06:22:00;18.60;61.10
38464;DHT22;24243;51.956;5.902;2024-02-23T06:24:44;18.60;61.10
38464;DHT22;24243;51.956;5.902;2024-02-23T06:27:28;18.60;61.10
38464;DHT22;24243;51.956;5.902;2024-02-23T06:30:14;18.50;61.10
38464;DHT22;24243;51.956;5.902;2024-02-23T06:32:58;18.60;61.20
38464;DHT22;24243;51.956;5.902;2024-02-23T06:35:42;18.60;61.20
38464;DHT22;24243;51.956;5.902;2024-02-23T06:38:27;18.60;61.20
38464;DHT22;24243;51.956;5.902;2024-02-23T06:41:11;18.60;61.20
38464;DHT22;24243;51.956;5.902;2024-02-23T06:43:56;18.60;61.20
38464;DHT22;24243;51.956;5.902;2024-02-23T06:46:40;18.60;61.20
38464;DHT22;24243;51.956;5.902;2024-02-23T06:49:24;18.60;61.20
38464;DHT22;24243;51.956;5.902;2024-02-23T06:52:09;18.60;61.20
38464;DHT22;24243;51.956;5.902;2024-02-23T06:54:53;18.60;61.20
38464;DHT22;24243;51.956;5.902;2024-02-23T06:57:38;18.60;61.20
38464;DHT22;24243;51.956;5.902;2024-02-23T07:00:22;18.60;61.20
38464;DHT22;24243;51.956;5.902;2024-02-23T07:03:06;18.60;61.10
38464;DHT22;24243;51.956;5.902;2024-02-23T07:05:50;18.60;61.10
38464;DHT22;24243;51.956;5.902;2024-02-23T07:08:35;18.60;61.10
38464;DHT22;24243;51.956;5.902;2024-02-23T07:11:19;18.50;61.00
38464;DHT22;24243;51.956;5.902;2024-02-23T07:14:03;18.60;61.10
38464;DHT22;24243;51.956;5.902;2024-02-23T07:16:48;18.60;61.10
38464;DHT22;24243;51.956;5.902;2024-02-23T07:19:32;18.50;61.00
38464;DHT22;24243;51.956;5.902;2024-02-23T07:22:16;18.50;61.00
38464;DHT22;24243;51.956;5.902;2024-02-23T07:25:02;18.60;61.10
38464;DHT22;24243;51.956;5.902;2024-02-23T07:27:47;18.50;61.00
38464;DHT22;24243;51.956;5.902;2024-02-23T07:30:34;18.50;61.00
38464;DHT22;24243;51.956;5.902;2024-02-23T07:33:19;18.50;61.00
38464;DHT22;24243;51.956;5.902;2024-02-23T07:36:03;18.50;61.00
38464;DHT22;24243;51.956;5.902;2024-02-23T07:38:47;18.50;60.90
38464;DHT22;24243;51.956;5.902;2024-02-23T07:41:31;18.50;60.90
38464;DHT22;24243;51.956;5.902;2024-02-23T07:44:15;18.50;60.90
38464;DHT22;24243;51.956;5.902;2024-02-23T07:47:00;18.50;60.90
38464;DHT22;24243;51.956;5.902;2024-02-23T07:49:44;18.50;60.90
38464;DHT22;24243;51.956;5.902;2024-02-23T07:52:28;18.50;60.90
38464;DHT22;24243;51.956;5.902;2024-02-23T07:55:12;18.50;60.90
38464;DHT22;24243;51.956;5.902;2024-02-23T07:57:57;18.50;60.90
38464;DHT22;24243;51.956;5.902;2024-02-23T08:00:45;18.50;60.90
38464;DHT22;24243;51.956;5.902;2024-02-23T08:03:29;18.50;60.90
38464;DHT22;24243;51.956;5.902;2024-02-23T08:06:14;18.50;60.90
38464;DHT22;24243;51.956;5.902;2024-02-23T08:08:58;18.50;60.90
38464;DHT22;24243;51.956;5.902;2024-02-23T08:11:42;18.50;60.80
38464;DHT22;24243;51.956;5.902;2024-02-23T08:14:26;18.50;60.90
38464;DHT22;24243;51.956;5.902;2024-02-23T08:17:11;18.50;60.90
38464;DHT22;24243;51.956;5.902;2024-02-23T08:19:55;18.60;60.90
38464;DHT22;24243;51.956;5.902;2024-02-23T08:22:39;18.50;60.80
38464;DHT22;24243;51.956;5.902;2024-02-23T08:25:24;18.50;60.80
38464;DHT22;24243;51.956;5.902;2024-02-23T08:28:08;18.50;60.80
38464;DHT22;24243;51.956;5.902;2024-02-23T08:30:52;18.50;60.80
38464;DHT22;24243;51.956;5.902;2024-02-23T08:33:37;18.50;60.80
38464;DHT22;24243;51.956;5.902;2024-02-23T08:36:21;18.50;60.80
38464;DHT22;24243;51.956;5.902;2024-02-23T08:39:06;18.50;60.80
38464;DHT22;24243;51.956;5.902;2024-02-23T08:41:52;18.50;60.80
38464;DHT22;24243;51.956;5.902;2024-02-23T08:44:36;18.50;60.80
38464;DHT22;24243;51.956;5.902;2024-02-23T08:47:22;18.60;60.80
38464;DHT22;24243;51.956;5.902;2024-02-23T08:50:07;18.60;60.80
38464;DHT22;24243;51.956;5.902;2024-02-23T08:52:51;18.60;60.80
38464;DHT22;24243;51.956;5.902;2024-02-23T08:55:35;18.60;60.80
38464;DHT22;24243;51.956;5.902;2024-02-23T08:58:20;18.60;60.90
38464;DHT22;24243;51.956;5.902;2024-02-23T09:01:04;18.60;60.80
38464;DHT22;24243;51.956;5.902;2024-02-23T09:03:48;18.60;60.80
38464;DHT22;24243;51.956;5.902;2024-02-23T09:06:33;18.60;60.80
38464;DHT22;24243;51.956;5.902;2024-02-23T09:09:17;18.60;60.80
38464;DHT22;24243;51.956;5.902;2024-02-23T09:12:01;18.60;60.80
38464;DHT22;24243;51.956;5.902;2024-02-23T09:14:45;18.60;60.80
38464;DHT22;24243;51.956;5.902;2024-02-23T09:17:30;18.60;60.80
38464;DHT22;24243;51.956;5.902;2024-02-23T09:20:14;18.60;61.50
38464;DHT22;24243;51.956;5.902;2024-02-23T09:22:58;18.60;60.80
38464;DHT22;24243;51.956;5.902;2024-02-23T09:25:42;18.60;60.80
38464;DHT22;24243;51.956;5.902;2024-02-23T09:28:29;18.60;60.80
38464;DHT22;24243;51.956;5.902;2024-02-23T09:31:13;18.60;60.80
38464;DHT22;24243;51.956;5.902;2024-02-23T09:33:57;18.60;60.80
38464;DHT22;24243;51.956;5.902;2024-02-23T09:36:42;18.60;60.90
38464;DHT22;24243;51.956;5.902;2024-02-23T09:39:26;18.60;60.80
38464;DHT22;24243;51.956;5.902;2024-02-23T09:42:14;18.50;60.80
38464;DHT22;24243;51.956;5.902;2024-02-23T09:44:59;18.60;60.80
38464;DHT22;24243;51.956;5.902;2024-02-23T09:47:44;18.60;60.80
38464;DHT22;24243;51.956;5.902;2024-02-23T09:50:28;18.50;60.80
38464;DHT22;24243;51.956;5.902;2024-02-23T09:53:13;18.60;60.80
38464;DHT22;24243;51.956;5.902;2024-02-23T09:55:57;18.60;60.90
38464;DHT22;24243;51.956;5.902;2024-02-23T09:58:44;18.60;60.90
38464;DHT22;24243;51.956;5.902;2024-02-23T10:01:28;18.60;60.80
38464;DHT22;24243;51.956;5.902;2024-02-23T10:04:15;18.60;60.80
38464;DHT22;24243;51.956;5.902;2024-02-23T10:07:01;18.60;60.80
38464;DHT22;24243;51.956;5.902;2024-02-23T10:09:46;18.50;60.80
38464;DHT22;24243;51.956;5.902;2024-02-23T10:12:30;18.50;60.80
38464;DHT22;24243;51.956;5.902;2024-02-23T10:15:14;18.60;60.80
38464;DHT22;24243;51.956;5.902;2024-02-23T10:17:59;18.60;60.80
38464;DHT22;24243;51.956;5.902;2024-02-23T10:20:43;18.60;60.80
38464;DHT22;24243;51.956;5.902;2024-02-23T10:23:28;18.60;60.80
38464;DHT22;24243;51.956;5.902;2024-02-23T10:26:12;18.60;60.80
38464;DHT22;24243;51.956;5.902;2024-02-23T10:28:56;18.60;60.80
38464;DHT22;24243;51.956;5.902;2024-02-23T10:31:42;18.60;60.80
38464;DHT22;24243;51.956;5.902;2024-02-23T10:34:29;18.50;60.80
38464;DHT22;24243;51.956;5.902;2024-02-23T10:37:13;18.60;60.80
38464;DHT22;24243;51.956;5.902;2024-02-23T10:39:57;18.50;60.70
38464;DHT22;24243;51.956;5.902;2024-02-23T10:42:45;18.50;60.70
38464;DHT22;24243;51.956;5.902;2024-02-23T10:45:34;18.50;60.70
38464;DHT22;24243;51.956;5.902;2024-02-23T10:48:20;18.50;60.80
38464;DHT22;24243;51.956;5.902;2024-02-23T10:51:05;18.50;60.70
38464;DHT22;24243;51.956;5.902;2024-02-23T10:53:50;18.50;61.40
38464;DHT22;24243;51.956;5.902;2024-02-23T10:56:36;18.50;60.70
38464;DHT22;24243;51.956;5.902;2024-02-23T10:59:20;18.50;60.70
38464;DHT22;24243;51.956;5.902;2024-02-23T11:02:06;18.50;60.70
38464;DHT22;24243;51.956;5.902;2024-02-23T11:04:51;18.60;60.80
38464;DHT22;24243;51.956;5.902;2024-02-23T11:07:39;18.50;60.70
38464;DHT22;24243;51.956;5.902;2024-02-23T11:10:26;18.50;60.70
38464;DHT22;24243;51.956;5.902;2024-02-23T11:13:12;18.60;60.70
38464;DHT22;24243;51.956;5.902;2024-02-23T11:16:00;18.50;60.70
38464;DHT22;24243;51.956;5.902;2024-02-23T11:18:45;18.50;60.70
38464;DHT22;24243;51.956;5.902;2024-02-23T11:21:33;18.50;60.70
38464;DHT22;24243;51.956;5.902;2024-02-23T11:24:18;18.50;60.80
38464;DHT22;24243;51.956;5.902;2024-02-23T11:27:02;18.50;60.70
38464;DHT22;24243;51.956;5.902;2024-02-23T11:29:59;18.50;60.70
38464;DHT22;24243;51.956;5.902;2024-02-23T11:32:45;18.50;60.70
38464;DHT22;24243;51.956;5.902;2024-02-23T11:35:31;18.50;60.70
38464;DHT22;24243;51.956;5.902;2024-02-23T11:38:15;18.50;60.70
38464;DHT22;24243;51.956;5.902;2024-02-23T11:41:02;18.50;60.70
38464;DHT22;24243;51.956;5.902;2024-02-23T11:43:47;18.50;60.70
38464;DHT22;24243;51.956;5.902;2024-02-23T11:46:31;18.50;60.70
38464;DHT22;24243;51.956;5.902;2024-02-23T11:49:16;18.50;60.70
38464;DHT22;24243;51.956;5.902;2024-02-23T11:52:00;18.50;60.70
38464;DHT22;24243;51.956;5.902;2024-02-23T11:54:44;18.50;60.70
38464;DHT22;24243;51.956;5.902;2024-02-23T11:57:28;18.50;60.70
38464;DHT22;24243;51.956;5.902;2024-02-23T12:00:13;18.50;60.70
38464;DHT22;24243;51.956;5.902;2024-02-23T12:02:57;18.50;60.70
38464;DHT22;24243;51.956;5.902;2024-02-23T12:05:41;18.50;60.70
38464;DHT22;24243;51.956;5.902;2024-02-23T12:08:26;18.50;60.70
38464;DHT22;24243;51.956;5.902;2024-02-23T12:11:11;18.50;60.70
38464;DHT22;24243;51.956;5.902;2024-02-23T12:13:55;18.50;60.70
38464;DHT22;24243;51.956;5.902;2024-02-23T12:16:40;18.50;60.70
38464;DHT22;24243;51.956;5.902;2024-02-23T12:19:24;18.50;60.60
38464;DHT22;24243;51.956;5.902;2024-02-23T12:22:12;18.50;60.70
38464;DHT22;24243;51.956;5.902;2024-02-23T12:24:57;18.50;60.70
38464;DHT22;24243;51.956;5.902;2024-02-23T12:27:41;18.50;60.70
38464;DHT22;24243;51.956;5.902;2024-02-23T12:30:27;18.50;60.70
38464;DHT22;24243;51.956;5.902;2024-02-23T12:33:14;18.50;60.70
38464;DHT22;24243;51.956;5.902;2024-02-23T12:35:59;18.50;60.70
38464;DHT22;24243;51.956;5.902;2024-02-23T12:38:43;18.50;60.60
38464;DHT22;24243;51.956;5.902;2024-02-23T12:41:27;18.50;60.70
38464;DHT22;24243;51.956;5.902;2024-02-23T12:44:12;18.50;60.60
38464;DHT22;24243;51.956;5.902;2024-02-23T12:46:56;18.50;60.70
38464;DHT22;24243;51.956;5.902;2024-02-23T12:49:40;18.50;60.60
38464;DHT22;24243;51.956;5.902;2024-02-23T12:52:24;18.50;60.60
38464;DHT22;24243;51.956;5.902;2024-02-23T12:55:09;18.50;60.70
38464;DHT22;24243;51.956;5.902;2024-02-23T12:57:54;18.50;60.60
38464;DHT22;24243;51.956;5.902;2024-02-23T13:00:38;18.50;61.30
38464;DHT22;24243;51.956;5.902;2024-02-23T13:03:23;18.50;60.60
38464;DHT22;24243;51.956;5.902;2024-02-23T13:06:07;18.50;60.60
38464;DHT22;24243;51.956;5.902;2024-02-23T13:08:51;18.50;60.60
38464;DHT22;24243;51.956;5.902;2024-02-23T13:11:35;18.50;60.60
38464;DHT22;24243;51.956;5.902;2024-02-23T13:14:22;18.50;60.60
38464;DHT22;24243;51.956;5.902;2024-02-23T13:17:06;18.50;60.60
38464;DHT22;24243;51.956;5.902;2024-02-23T13:19:50;18.50;60.60
38464;DHT22;24243;51.956;5.902;2024-02-23T13:22:34;18.50;60.60
38464;DHT22;24243;51.956;5.902;2024-02-23T13:25:19;18.50;60.60
38464;DHT22;24243;51.956;5.902;2024-02-23T13:28:03;18.50;60.60
38464;DHT22;24243;51.956;5.902;2024-02-23T13:30:48;18.50;60.60
38464;DHT22;24243;51.956;5.902;2024-02-23T13:33:33;18.50;60.60
38464;DHT22;24243;51.956;5.902;2024-02-23T13:36:17;18.60;60.70
38464;DHT22;24243;51.956;5.902;2024-02-23T13:39:01;18.60;60.60
38464;DHT22;24243;51.956;5.902;2024-02-23T13:41:45;18.60;60.70
38464;DHT22;24243;51.956;5.902;2024-02-23T13:44:30;18.60;60.60
38464;DHT22;24243;51.956;5.902;2024-02-23T13:47:14;18.60;60.70
38464;DHT22;24243;51.956;5.902;2024-02-23T13:49:59;18.60;60.70
38464;DHT22;24243;51.956;5.902;2024-02-23T13:52:43;18.60;60.70
38464;DHT22;24243;51.956;5.902;2024-02-23T13:55:27;18.60;60.70
38464;DHT22;24243;51.956;5.902;2024-02-23T13:58:11;18.60;60.70
38464;DHT22;24243;51.956;5.902;2024-02-23T14:00:56;18.60;60.70
38464;DHT22;24243;51.956;5.902;2024-02-23T14:03:40;18.60;60.70
38464;DHT22;24243;51.956;5.902;2024-02-23T14:06:24;18.60;60.70
38464;DHT22;24243;51.956;5.902;2024-02-23T14:09:09;18.60;60.80
38464;DHT22;24243;51.956;5.902;2024-02-23T14:11:53;18.70;60.90
38464;DHT22;24243;51.956;5.902;2024-02-23T14:14:38;18.70;60.90
38464;DHT22;24243;51.956;5.902;2024-02-23T14:17:22;18.70;60.90
38464;DHT22;24243;51.956;5.902;2024-02-23T14:20:06;18.70;60.90
38464;DHT22;24243;51.956;5.902;2024-02-23T14:22:51;18.70;61.00
38464;DHT22;24243;51.956;5.902;2024-02-23T14:25:36;18.70;61.00
38464;DHT22;24243;51.956;5.902;2024-02-23T14:28:20;18.70;61.10
38464;DHT22;24243;51.956;5.902;2024-02-23T14:31:05;18.80;61.10
38464;DHT22;24243;51.956;5.902;2024-02-23T14:33:49;18.80;61.20
38464;DHT22;24243;51.956;5.902;2024-02-23T14:36:34;18.80;61.20
38464;DHT22;24243;51.956;5.902;2024-02-23T14:39:18;18.80;61.30
38464;DHT22;24243;51.956;5.902;2024-02-23T14:42:03;18.80;61.30
38464;DHT22;24243;51.956;5.902;2024-02-23T14:44:47;18.90;61.30
38464;DHT22;24243;51.956;5.902;2024-02-23T14:47:31;18.90;61.40
38464;DHT22;24243;51.956;5.902;2024-02-23T14:50:15;18.90;61.40
38464;DHT22;24243;51.956;5.902;2024-02-23T14:53:00;18.90;61.40
38464;DHT22;24243;51.956;5.902;2024-02-23T14:55:44;18.90;61.40
38464;DHT22;24243;51.956;5.902;2024-02-23T14:58:28;19.00;61.50
38464;DHT22;24243;51.956;5.902;2024-02-23T15:01:12;19.00;61.40
38464;DHT22;24243;51.956;5.902;2024-02-23T15:03:56;19.00;61.50
38464;DHT22;24243;51.956;5.902;2024-02-23T15:06:41;19.00;61.50
38464;DHT22;24243;51.956;5.902;2024-02-23T15:09:25;19.00;61.50
38464;DHT22;24243;51.956;5.902;2024-02-23T15:12:09;19.10;61.50
38464;DHT22;24243;51.956;5.902;2024-02-23T15:14:53;19.10;61.60
38464;DHT22;24243;51.956;5.902;2024-02-23T15:17:37;19.10;61.60
38464;DHT22;24243;51.956;5.902;2024-02-23T15:20:22;19.10;61.60
38464;DHT22;24243;51.956;5.902;2024-02-23T15:23:06;19.10;61.60
38464;DHT22;24243;51.956;5.902;2024-02-23T15:25:50;19.10;61.60
38464;DHT22;24243;51.956;5.902;2024-02-23T15:28:35;19.10;61.60
38464;DHT22;24243;51.956;5.902;2024-02-23T15:31:19;19.10;61.60
38464;DHT22;24243;51.956;5.902;2024-02-23T15:34:05;19.20;61.70
38464;DHT22;24243;51.956;5.902;2024-02-23T15:36:49;19.20;61.70
38464;DHT22;24243;51.956;5.902;2024-02-23T15:39:33;19.20;61.70
38464;DHT22;24243;51.956;5.902;2024-02-23T15:42:18;19.20;62.40
38464;DHT22;24243;51.956;5.902;2024-02-23T15:45:04;19.20;61.70
38464;DHT22;24243;51.956;5.902;2024-02-23T15:47:50;19.20;61.70
38464;DHT22;24243;51.956;5.902;2024-02-23T15:50:34;19.20;61.70
38464;DHT22;24243;51.956;5.902;2024-02-23T15:53:19;19.20;61.70
38464;DHT22;24243;51.956;5.902;2024-02-23T15:56:03;19.20;61.70
38464;DHT22;24243;51.956;5.902;2024-02-23T15:58:47;19.20;61.70
38464;DHT22;24243;51.956;5.902;2024-02-23T16:01:32;19.20;61.70
38464;DHT22;24243;51.956;5.902;2024-02-23T16:04:16;19.20;61.70
38464;DHT22;24243;51.956;5.902;2024-02-23T16:07:00;19.20;61.70
38464;DHT22;24243;51.956;5.902;2024-02-23T16:09:44;19.20;61.70
38464;DHT22;24243;51.956;5.902;2024-02-23T16:12:28;19.20;61.70
38464;DHT22;24243;51.956;5.902;2024-02-23T16:15:13;19.20;61.70
38464;DHT22;24243;51.956;5.902;2024-02-23T16:17:57;19.20;61.70
38464;DHT22;24243;51.956;5.902;2024-02-23T16:20:41;19.20;61.70
38464;DHT22;24243;51.956;5.902;2024-02-23T16:23:28;19.20;61.70
38464;DHT22;24243;51.956;5.902;2024-02-23T16:26:12;19.20;61.70
38464;DHT22;24243;51.956;5.902;2024-02-23T16:28:57;19.20;61.70
38464;DHT22;24243;51.956;5.902;2024-02-23T16:31:41;19.20;61.70
38464;DHT22;24243;51.956;5.902;2024-02-23T16:34:26;19.20;61.70
38464;DHT22;24243;51.956;5.902;2024-02-23T16:37:10;19.20;61.70
38464;DHT22;24243;51.956;5.902;2024-02-23T16:39:55;19.20;61.70
38464;DHT22;24243;51.956;5.902;2024-02-23T16:42:39;19.20;61.70
38464;DHT22;24243;51.956;5.902;2024-02-23T16:45:25;19.30;61.70
38464;DHT22;24243;51.956;5.902;2024-02-23T16:48:10;19.20;61.70
38464;DHT22;24243;51.956;5.902;2024-02-23T16:50:55;19.20;61.70
38464;DHT22;24243;51.956;5.902;2024-02-23T16:53:40;19.20;61.70
38464;DHT22;24243;51.956;5.902;2024-02-23T16:56:24;19.20;61.70
38464;DHT22;24243;51.956;5.902;2024-02-23T16:59:11;19.20;61.70
38464;DHT22;24243;51.956;5.902;2024-02-23T17:01:55;19.20;61.70
38464;DHT22;24243;51.956;5.902;2024-02-23T17:04:39;19.20;61.70
38464;DHT22;24243;51.956;5.902;2024-02-23T17:07:23;19.30;61.70
38464;DHT22;24243;51.956;5.902;2024-02-23T17:10:08;19.20;61.70
38464;DHT22;24243;51.956;5.902;2024-02-23T17:12:52;19.20;61.70
38464;DHT22;24243;51.956;5.902;2024-02-23T17:15:38;19.30;61.70
38464;DHT22;24243;51.956;5.902;2024-02-23T17:18:23;19.30;61.70